createdAt,value
2023-03-28T00:01:52.194Z,97332.16
2023-03-28T00:04:22.871Z,97334.66
2023-03-28T00:06:50.932Z,97320.09
2023-03-28T00:09:18.876Z,97327.06
2023-03-28T00:11:47.668Z,97336.47
2023-03-28T00:14:15.999Z,97336.78
2023-03-28T00:16:46.803Z,97335.97
2023-03-28T00:19:16.613Z,97331.66
2023-03-28T00:21:47.756Z,97335.94
2023-03-28T00:24:18.849Z,97333.31
2023-03-28T00:26:49.517Z,97326.22
2023-03-28T00:29:21.298Z,97333.16
2023-03-28T00:31:49.904Z,97336.59
2023-03-28T00:34:18.437Z,97337.59
2023-03-28T00:36:47.618Z,97339.25
2023-03-28T00:39:15.395Z,97331.66
2023-03-28T00:41:45.200Z,97326.03
2023-03-28T00:44:44.332Z,97330.00
2023-03-28T00:47:32.151Z,97325.03
2023-03-28T00:50:05.234Z,97330.50
2023-03-28T00:52:40.230Z,97330.03
2023-03-28T00:55:13.591Z,97329.66
2023-03-28T00:57:41.932Z,97327.34
2023-03-28T01:00:13.482Z,97324.53
2023-03-28T01:02:45.880Z,97329.34
2023-03-28T01:05:15.133Z,97333.31
2023-03-28T01:07:49.392Z,97323.06
2023-03-28T01:10:17.157Z,97321.09
2023-03-28T01:12:45.211Z,97331.97
2023-03-28T01:15:13.158Z,97326.88
2023-03-28T01:17:41.809Z,97319.75
2023-03-28T01:20:32.643Z,97326.53
2023-03-28T01:23:36.006Z,97337.09
2023-03-28T01:26:33.531Z,97336.97
2023-03-28T01:29:47.024Z,97336.97
2023-03-28T01:32:49.793Z,97345.22
2023-03-28T01:35:58.876Z,97341.22
2023-03-28T01:38:35.631Z,97350.78
2023-03-28T01:41:09.646Z,97357.03
2023-03-28T01:43:46.667Z,97363.28
2023-03-28T01:46:18.778Z,97364.28
2023-03-28T01:48:57.743Z,97361.44
2023-03-28T01:51:30.896Z,97365.75
2023-03-28T01:54:04.206Z,97354.00
2023-03-28T01:56:39.494Z,97359.25
2023-03-28T01:59:14.578Z,97353.63
2023-03-28T02:01:51.664Z,97355.47
2023-03-28T02:04:21.888Z,97364.19
2023-03-28T02:06:52.885Z,97369.78
2023-03-28T02:09:24.919Z,97364.03
2023-03-28T02:11:57.133Z,97364.56
2023-03-28T02:14:29.309Z,97359.94
2023-03-28T02:17:04.827Z,97359.28
2023-03-28T02:19:37.856Z,97357.94
2023-03-28T02:22:16.747Z,97361.88
2023-03-28T02:24:50.586Z,97361.88
2023-03-28T02:27:19.657Z,97361.88
2023-03-28T02:29:49.325Z,97349.94
2023-03-28T02:32:17.328Z,97344.19
2023-03-28T02:34:49.228Z,97341.72
2023-03-28T02:37:30.668Z,97344.03
2023-03-28T02:40:17.160Z,97338.22
2023-03-28T02:43:10.808Z,97343.78
2023-03-28T02:46:07.865Z,97339.66
2023-03-28T02:48:54.502Z,97349.06
2023-03-28T02:51:31.737Z,97337.81
2023-03-28T02:54:10.922Z,97338.31
2023-03-28T02:56:50.940Z,97333.34
2023-03-28T02:59:24.955Z,97333.97
2023-03-28T03:01:53.498Z,97334.94
2023-03-28T03:04:21.451Z,97330.03
2023-03-28T03:06:49.425Z,97323.59
2023-03-28T03:09:18.708Z,97330.38
2023-03-28T03:11:47.790Z,97326.09
2023-03-28T03:14:15.769Z,97327.25
2023-03-28T03:16:43.750Z,97326.41
2023-03-28T03:19:11.580Z,97324.75
2023-03-28T03:21:39.626Z,97322.47
2023-03-28T03:24:09.777Z,97323.31
2023-03-28T03:26:37.555Z,97315.69
2023-03-28T03:29:06.743Z,97324.41
2023-03-28T03:31:34.729Z,97315.19
2023-03-28T03:34:02.979Z,97312.56
2023-03-28T03:36:31.953Z,97315.25
2023-03-28T03:39:00.001Z,97305.66
2023-03-28T03:41:28.150Z,97306.19
2023-03-28T03:43:55.886Z,97307.84
2023-03-28T03:46:25.557Z,97317.47
2023-03-28T03:48:53.485Z,97288.75
2023-03-28T03:51:21.332Z,97318.38
2023-03-28T03:53:50.583Z,97324.31
2023-03-28T03:56:18.584Z,97319.00
2023-03-28T03:58:46.821Z,97318.00
2023-03-28T04:01:14.956Z,97324.34
2023-03-28T04:03:44.281Z,97326.75
2023-03-28T04:06:12.138Z,97323.19
2023-03-28T04:08:40.034Z,97326.25
2023-03-28T04:11:10.572Z,97321.97
2023-03-28T04:13:38.526Z,97315.97
2023-03-28T04:16:07.491Z,97325.44
2023-03-28T04:18:35.707Z,97325.19
2023-03-28T04:21:05.291Z,97327.69
2023-03-28T04:23:34.010Z,97327.47
2023-03-28T04:26:03.426Z,97325.13
2023-03-28T04:28:31.411Z,97326.97
2023-03-28T04:30:59.360Z,97326.44
2023-03-28T04:33:28.162Z,97322.22
2023-03-28T04:35:57.430Z,97334.06
2023-03-28T04:38:28.721Z,97326.75
2023-03-28T04:40:59.685Z,97328.09
2023-03-28T04:43:28.080Z,97327.75
2023-03-28T04:45:56.454Z,97334.66
2023-03-28T04:48:25.441Z,97324.59
2023-03-28T04:50:53.445Z,97340.56
2023-03-28T04:53:21.829Z,97353.69
2023-03-28T04:55:51.222Z,97346.72
2023-03-28T04:58:20.609Z,97351.66
2023-03-28T05:00:49.710Z,97352.63
2023-03-28T05:03:20.335Z,97356.31
2023-03-28T05:05:49.939Z,97353.53
2023-03-28T05:08:19.158Z,97356.31
2023-03-28T05:10:47.121Z,97361.56
2023-03-28T05:13:17.124Z,97346.38
2023-03-28T05:15:45.002Z,97360.25
2023-03-28T05:18:12.917Z,97361.91
2023-03-28T05:20:40.983Z,97364.66
2023-03-28T05:23:09.410Z,97369.78
2023-03-28T05:25:37.509Z,97371.81
2023-03-28T05:28:06.079Z,97370.38
2023-03-28T05:30:35.729Z,97375.34
2023-03-28T05:33:04.152Z,97377.31
2023-03-28T05:35:32.051Z,97379.50
2023-03-28T05:37:59.870Z,97386.72
2023-03-28T05:40:27.756Z,97381.75
2023-03-28T05:42:55.512Z,97389.19
2023-03-28T05:45:23.381Z,97396.28
2023-03-28T05:47:54.538Z,97398.53
2023-03-28T05:50:22.464Z,97402.19
2023-03-28T05:52:50.379Z,97406.25
2023-03-28T05:55:18.367Z,97408.50
2023-03-28T05:57:46.132Z,97406.97
2023-03-28T06:00:15.334Z,97409.03
2023-03-28T06:02:43.431Z,97418.00
2023-03-28T06:05:13.836Z,97413.47
2023-03-28T06:07:43.178Z,97416.69
2023-03-28T06:10:13.100Z,97409.00
2023-03-28T06:12:41.511Z,97413.84
2023-03-28T06:15:10.010Z,97413.38
2023-03-28T06:17:37.896Z,97419.25
2023-03-28T06:20:07.157Z,97418.31
2023-03-28T06:22:36.650Z,97414.88
2023-03-28T06:25:06.252Z,97422.66
2023-03-28T06:27:34.266Z,97421.50
2023-03-28T06:30:02.889Z,97420.50
2023-03-28T06:32:30.727Z,97425.13
2023-03-28T06:34:58.551Z,97419.78
2023-03-28T06:37:27.048Z,97406.50
2023-03-28T06:39:56.383Z,97408.56
2023-03-28T06:42:24.130Z,97403.28
2023-03-28T06:44:52.652Z,97408.34
2023-03-28T06:47:20.842Z,97409.75
2023-03-28T06:49:48.749Z,97404.53
2023-03-28T06:52:16.780Z,97405.56
2023-03-28T06:54:46.072Z,97411.28
2023-03-28T06:57:17.737Z,97414.94
2023-03-28T06:59:45.676Z,97416.25
2023-03-28T07:02:13.611Z,97412.78
2023-03-28T07:04:41.782Z,97403.31
2023-03-28T07:07:10.127Z,97413.78
2023-03-28T07:09:38.315Z,97420.03
2023-03-28T07:12:06.681Z,97418.28
2023-03-28T07:14:36.474Z,97426.00
2023-03-28T07:17:04.277Z,97429.69
2023-03-28T07:19:32.159Z,97417.47
2023-03-28T07:22:00.003Z,97427.06
2023-03-28T07:24:27.944Z,97422.13
2023-03-28T07:27:11.809Z,97426.84
2023-03-28T07:29:44.569Z,97421.94
2023-03-28T07:32:12.563Z,97419.28
2023-03-28T07:34:40.671Z,97420.97
2023-03-28T07:37:09.535Z,97415.59
2023-03-28T07:39:39.927Z,97423.44
2023-03-28T07:42:10.993Z,97407.59
2023-03-28T07:44:40.330Z,97419.25
2023-03-28T07:47:12.142Z,97412.50
2023-03-28T07:49:41.070Z,97430.25
2023-03-28T07:52:09.702Z,97423.44
2023-03-28T07:54:37.559Z,97425.03
2023-03-28T07:57:05.424Z,97424.53
2023-03-28T07:59:33.228Z,97425.41
2023-03-28T08:02:01.150Z,97431.78
2023-03-28T08:04:30.436Z,97419.22
2023-03-28T08:06:58.187Z,97404.94
2023-03-28T08:09:26.005Z,97399.31
2023-03-28T08:11:55.229Z,97405.84
2023-03-28T08:14:23.050Z,97407.25
2023-03-28T08:16:51.996Z,97402.84
2023-03-28T08:19:19.845Z,97399.16
2023-03-28T08:21:50.918Z,97406.53
2023-03-28T08:24:28.963Z,97407.03
2023-03-28T08:27:00.936Z,97414.06
2023-03-28T08:29:28.725Z,97415.06
2023-03-28T08:31:56.606Z,97415.03
2023-03-28T08:34:24.588Z,97423.22
2023-03-28T08:36:54.003Z,97428.22
2023-03-28T08:39:21.811Z,97414.25
2023-03-28T08:42:16.520Z,97415.22
2023-03-28T08:45:10.846Z,97420.09
2023-03-28T08:47:48.665Z,97413.53
2023-03-28T08:50:20.730Z,97423.78
2023-03-28T08:52:49.824Z,97420.13
2023-03-28T08:55:30.641Z,97416.59
2023-03-28T08:57:59.791Z,97426.91
2023-03-28T09:00:31.272Z,97402.94
2023-03-28T09:02:59.902Z,97418.06
2023-03-28T09:05:38.866Z,97415.63
2023-03-28T09:08:29.254Z,97415.50
2023-03-28T09:11:02.804Z,97424.88
2023-03-28T09:13:40.477Z,97394.06
2023-03-28T09:16:26.632Z,97400.41
2023-03-28T09:19:10.805Z,97410.50
2023-03-28T09:21:50.699Z,97403.91
2023-03-28T09:24:41.424Z,97414.16
2023-03-28T09:27:18.895Z,97411.53
2023-03-28T09:29:48.541Z,97404.06
2023-03-28T09:32:23.776Z,97410.94
2023-03-28T09:34:52.852Z,97401.00
2023-03-28T09:37:29.611Z,97413.50
2023-03-28T09:40:03.769Z,97409.44
2023-03-28T09:42:39.570Z,97409.44
2023-03-28T09:45:27.314Z,97404.63
2023-03-28T09:47:55.394Z,97396.44
2023-03-28T09:50:23.717Z,97390.78
2023-03-28T09:52:51.985Z,97392.13
2023-03-28T09:55:23.218Z,97400.19
2023-03-28T09:58:02.352Z,97391.56
2023-03-28T10:00:30.697Z,97389.63
2023-03-28T10:02:58.459Z,97388.47
2023-03-28T10:05:35.424Z,97380.06
2023-03-28T10:08:06.776Z,97380.34
2023-03-28T10:10:36.258Z,97398.78
2023-03-28T10:13:05.791Z,97384.50
2023-03-28T10:15:39.781Z,97390.09
2023-03-28T10:18:07.906Z,97389.66
2023-03-28T10:20:38.854Z,97381.22
2023-03-28T10:23:06.921Z,97378.31
2023-03-28T10:25:39.076Z,97374.00
2023-03-28T10:28:08.752Z,97377.81
2023-03-28T10:30:37.913Z,97374.63
2023-03-28T10:33:21.281Z,97367.84
2023-03-28T10:35:55.828Z,97370.13
2023-03-28T10:38:26.220Z,97357.25
2023-03-28T10:41:02.026Z,97338.88
2023-03-28T10:43:36.596Z,97345.91
2023-03-28T10:46:09.731Z,97351.31
2023-03-28T10:48:39.463Z,97345.03
2023-03-28T10:51:15.168Z,97335.31
2023-03-28T10:53:55.246Z,97341.50
2023-03-28T10:56:33.939Z,97337.09
2023-03-28T10:59:18.939Z,97332.19
2023-03-28T11:01:58.262Z,97328.59
2023-03-28T11:04:41.442Z,97328.59
2023-03-28T11:07:13.436Z,97317.16
2023-03-28T11:09:47.792Z,97318.50
2023-03-28T11:12:43.730Z,97318.13
2023-03-28T11:15:23.048Z,97316.88
2023-03-28T11:18:02.320Z,97322.06
2023-03-28T11:20:37.400Z,97313.00
2023-03-28T11:23:31.339Z,97312.13
2023-03-28T11:26:03.062Z,97314.41
2023-03-28T11:28:46.740Z,97298.59
2023-03-28T11:31:19.615Z,97314.88
2023-03-28T11:33:56.234Z,97304.94
2023-03-28T11:36:30.110Z,97296.56
2023-03-28T11:39:05.787Z,97302.88
2023-03-28T11:41:39.682Z,97298.63
2023-03-28T11:44:15.781Z,97307.38
2023-03-28T11:46:48.011Z,97298.03
2023-03-28T11:49:22.741Z,97290.16
2023-03-28T11:51:59.477Z,97296.72
2023-03-28T11:54:34.450Z,97302.28
2023-03-28T11:57:07.599Z,97292.00
2023-03-28T11:59:43.161Z,97288.91
2023-03-28T12:02:23.351Z,97280.09
2023-03-28T12:04:57.050Z,97292.44
2023-03-28T12:07:33.138Z,97280.16
2023-03-28T12:10:08.797Z,97287.84
2023-03-28T12:12:44.278Z,97270.72
2023-03-28T12:15:17.636Z,97258.41
2023-03-28T12:17:48.669Z,97266.19
2023-03-28T12:20:25.140Z,97252.56
2023-03-28T12:22:57.477Z,97256.25
2023-03-28T12:25:31.135Z,97247.31
2023-03-28T12:28:05.220Z,97233.88
2023-03-28T12:30:41.232Z,97231.50
2023-03-28T12:33:20.211Z,97227.41
2023-03-28T12:35:53.674Z,97219.88
2023-03-28T12:38:31.749Z,97210.56
2023-03-28T12:41:03.824Z,97208.50
2023-03-28T12:43:46.966Z,97204.50
2023-03-28T12:46:20.151Z,97200.97
2023-03-28T12:48:52.970Z,97211.00
2023-03-28T12:51:27.975Z,97211.09
2023-03-28T12:54:17.875Z,97210.75
2023-03-28T12:56:47.514Z,97210.69
2023-03-28T12:59:37.767Z,97218.56
2023-03-28T13:02:14.795Z,97214.31
2023-03-28T13:04:51.909Z,97219.84
2023-03-28T13:07:28.140Z,97210.94
2023-03-28T13:10:02.395Z,97205.38
2023-03-28T13:12:53.226Z,97221.94
2023-03-28T13:15:34.741Z,97208.63
2023-03-28T13:18:35.666Z,97204.66
2023-03-28T13:21:07.317Z,97204.88
2023-03-28T13:23:47.796Z,97175.34
2023-03-28T13:26:15.971Z,97191.84
2023-03-28T13:28:46.754Z,97188.19
2023-03-28T13:31:22.307Z,97196.84
2023-03-28T13:33:55.109Z,97187.25
2023-03-28T13:36:34.420Z,97176.53
2023-03-28T13:39:21.624Z,97184.94
2023-03-28T13:42:01.938Z,97176.91
2023-03-28T13:44:40.300Z,97175.00
2023-03-28T13:47:16.386Z,97170.53
2023-03-28T13:49:51.866Z,97166.22
2023-03-28T13:52:23.814Z,97161.19
2023-03-28T13:54:54.262Z,97162.88
2023-03-28T13:57:26.078Z,97156.22
2023-03-28T13:59:55.219Z,97159.66
2023-03-28T14:02:32.651Z,97155.34
2023-03-28T14:05:14.140Z,97163.78
2023-03-28T14:07:42.745Z,97156.16
2023-03-28T14:10:29.658Z,97152.00
2023-03-28T14:13:01.126Z,97149.47
2023-03-28T14:15:33.621Z,97146.53
2023-03-28T14:18:03.007Z,97144.28
2023-03-28T14:20:34.520Z,97136.41
2023-03-28T14:23:02.501Z,97141.97
2023-03-28T14:25:31.522Z,97144.56
2023-03-28T14:28:08.396Z,97138.75
2023-03-28T14:30:40.745Z,97132.34
2023-03-28T14:33:20.517Z,97128.41
2023-03-28T14:35:59.344Z,97128.56
2023-03-28T14:38:33.220Z,97115.81
2023-03-28T14:41:19.055Z,97121.56
2023-03-28T14:43:52.083Z,97112.63
2023-03-28T14:46:24.665Z,97116.19
2023-03-28T14:48:53.906Z,97109.81
2023-03-28T14:51:23.389Z,97104.69
2023-03-28T14:53:52.584Z,97109.06
2023-03-28T14:56:25.743Z,97098.13
2023-03-28T14:58:56.603Z,97094.84
2023-03-28T15:01:27.146Z,97099.41
2023-03-28T15:03:59.800Z,97094.50
2023-03-28T15:06:29.621Z,97088.56
2023-03-28T15:08:59.779Z,97090.66
2023-03-28T15:11:32.706Z,97085.06
2023-03-28T15:14:04.737Z,97075.84
2023-03-28T15:16:37.743Z,97052.78
2023-03-28T15:19:08.560Z,97057.38
2023-03-28T15:21:39.885Z,97062.97
2023-03-28T15:24:13.041Z,97066.91
2023-03-28T15:26:45.122Z,97068.47
2023-03-28T15:29:16.411Z,97073.06
2023-03-28T15:31:44.592Z,97060.69
2023-03-28T15:34:19.943Z,97055.91
2023-03-28T15:36:52.759Z,97062.34
2023-03-28T15:39:25.597Z,97048.59
2023-03-28T15:41:56.502Z,97047.66
2023-03-28T15:44:29.108Z,97030.03
2023-03-28T15:47:00.552Z,97050.53
2023-03-28T15:49:29.461Z,97045.94
2023-03-28T15:52:02.740Z,97050.25
2023-03-28T15:54:32.406Z,97048.16
2023-03-28T15:57:03.106Z,97036.22
2023-03-28T15:59:36.353Z,97043.72
2023-03-28T16:02:22.346Z,97048.78
2023-03-28T16:05:01.017Z,97050.34
2023-03-28T16:07:34.534Z,97039.63
2023-03-28T16:10:02.389Z,97065.53
2023-03-28T16:12:30.139Z,97068.00
2023-03-28T16:14:57.892Z,97057.03
2023-03-28T16:17:26.143Z,97053.25
2023-03-28T16:19:54.350Z,97048.59
2023-03-28T16:22:22.204Z,97053.06
2023-03-28T16:24:52.072Z,97050.94
2023-03-28T16:27:20.762Z,97051.66
2023-03-28T16:29:49.032Z,97035.81
2023-03-28T16:32:17.337Z,97046.63
2023-03-28T16:34:45.495Z,97044.44
2023-03-28T16:37:13.350Z,97042.84
2023-03-28T16:39:41.449Z,97043.56
2023-03-28T16:42:10.727Z,97046.47
2023-03-28T16:44:38.676Z,97041.97
2023-03-28T16:47:06.673Z,97048.69
2023-03-28T16:49:34.426Z,97043.81
2023-03-28T16:52:02.203Z,97037.44
2023-03-28T16:54:29.973Z,97025.03
2023-03-28T16:56:57.835Z,97028.59
2023-03-28T16:59:27.217Z,97043.47
2023-03-28T17:01:55.087Z,97034.69
2023-03-28T17:04:23.158Z,97037.78
2023-03-28T17:06:51.054Z,97036.53
2023-03-28T17:09:18.829Z,97034.59
2023-03-28T17:11:46.925Z,97032.97
2023-03-28T17:14:14.700Z,97038.69
2023-03-28T17:16:45.100Z,97025.88
2023-03-28T17:19:14.160Z,97026.91
2023-03-28T17:21:42.019Z,97024.25
2023-03-28T17:24:11.595Z,97023.06
2023-03-28T17:26:39.376Z,97018.53
2023-03-28T17:29:09.650Z,97023.06
2023-03-28T17:31:37.877Z,97019.44
2023-03-28T17:34:07.550Z,97027.47
2023-03-28T17:36:35.851Z,97025.84
2023-03-28T17:39:05.068Z,97008.22
2023-03-28T17:41:33.138Z,97018.91
2023-03-28T17:44:00.904Z,97018.06
2023-03-28T17:46:29.190Z,96996.38
2023-03-28T17:48:57.151Z,96998.19
2023-03-28T17:51:26.373Z,96994.50
2023-03-28T17:53:54.293Z,96994.91
2023-03-28T17:56:23.340Z,96978.50
2023-03-28T17:58:51.864Z,96994.25
2023-03-28T18:01:20.321Z,96987.06
2023-03-28T18:03:48.439Z,96980.53
2023-03-28T18:06:16.944Z,96999.34
2023-03-28T18:08:46.373Z,96995.88
2023-03-28T18:11:17.760Z,96988.72
2023-03-28T18:13:45.686Z,96995.81
2023-03-28T18:16:15.531Z,97005.03
2023-03-28T18:18:43.348Z,97002.63
2023-03-28T18:21:11.600Z,96989.31
2023-03-28T18:23:39.893Z,96994.03
2023-03-28T18:26:09.492Z,96988.75
2023-03-28T18:28:37.494Z,96982.97
2023-03-28T18:31:10.074Z,96976.22
2023-03-28T18:33:38.620Z,96977.44
2023-03-28T18:36:07.380Z,96962.28
2023-03-28T18:38:39.953Z,96962.88
2023-03-28T18:41:09.456Z,96962.91
2023-03-28T18:43:38.158Z,96958.81
2023-03-28T18:46:07.819Z,96960.84
2023-03-28T18:48:36.529Z,96966.72
2023-03-28T18:51:06.455Z,96970.66
2023-03-28T18:53:34.878Z,96973.94
2023-03-28T18:56:03.347Z,96967.59
2023-03-28T18:58:33.303Z,96953.25
2023-03-28T19:01:03.549Z,96952.69
2023-03-28T19:03:34.615Z,96944.25
2023-03-28T19:06:03.679Z,96945.06
2023-03-28T19:08:32.523Z,96931.13
2023-03-28T19:11:01.593Z,96924.81
2023-03-28T19:13:30.496Z,96930.13
2023-03-28T19:16:00.485Z,96932.59
2023-03-28T19:18:28.507Z,96932.56
2023-03-28T19:20:58.515Z,96923.56
2023-03-28T19:23:28.093Z,96929.31
2023-03-28T19:25:56.371Z,96914.97
2023-03-28T19:28:24.372Z,96914.16
2023-03-28T19:30:58.648Z,96916.38
2023-03-28T19:33:28.623Z,96927.84
2023-03-28T19:35:56.962Z,96921.88
2023-03-28T19:38:26.461Z,96929.28
2023-03-28T19:40:58.536Z,96933.38
2023-03-28T19:43:26.494Z,96929.09
2023-03-28T19:45:54.369Z,96932.94
2023-03-28T19:48:22.482Z,96936.84
2023-03-28T19:50:51.632Z,96926.84
2023-03-28T19:53:19.397Z,96927.84
2023-03-28T19:55:52.190Z,96937.47
2023-03-28T19:58:20.593Z,96943.63
2023-03-28T20:00:49.192Z,96946.91
2023-03-28T20:03:17.679Z,96958.97
2023-03-28T20:05:46.765Z,96952.22
2023-03-28T20:08:18.683Z,96955.88
2023-03-28T20:10:48.589Z,96959.00
2023-03-28T20:13:18.252Z,96960.00
2023-03-28T20:15:47.170Z,96969.03
2023-03-28T20:18:19.689Z,96966.16
2023-03-28T20:20:50.036Z,96977.00
2023-03-28T20:23:20.266Z,96989.88
2023-03-28T20:25:48.458Z,96974.72
2023-03-28T20:28:16.486Z,96975.16
2023-03-28T20:30:46.892Z,96966.19
2023-03-28T20:33:14.757Z,96977.19
2023-03-28T20:35:42.807Z,96988.63
2023-03-28T20:38:11.206Z,96981.06
2023-03-28T20:40:41.519Z,96969.28
2023-03-28T20:43:11.796Z,96955.72
2023-03-28T20:45:39.818Z,96974.72
2023-03-28T20:48:10.633Z,96977.56
2023-03-28T20:50:41.422Z,96985.34
2023-03-28T20:53:09.725Z,96985.28
2023-03-28T20:55:37.798Z,97003.13
2023-03-28T20:58:08.709Z,97002.47
2023-03-28T21:00:36.515Z,97019.06
2023-03-28T21:03:04.342Z,97023.97
2023-03-28T21:05:33.259Z,97014.34
2023-03-28T21:08:02.255Z,97021.50
2023-03-28T21:10:30.196Z,97036.09
2023-03-28T21:12:57.925Z,97023.25
2023-03-28T21:15:28.208Z,97020.38
2023-03-28T21:17:56.060Z,97028.41
2023-03-28T21:20:23.844Z,96996.03
2023-03-28T21:22:51.544Z,96946.94
2023-03-28T21:25:21.297Z,96947.34
2023-03-28T21:27:49.286Z,96910.47
2023-03-28T21:30:17.816Z,96944.06
2023-03-28T21:32:47.929Z,96983.59
2023-03-28T21:35:16.268Z,96990.13
2023-03-28T21:37:44.052Z,96989.13
2023-03-28T21:40:12.756Z,96990.97
2023-03-28T21:42:40.879Z,96996.88
2023-03-28T21:45:11.729Z,97015.75
2023-03-28T21:47:41.538Z,96979.28
2023-03-28T21:50:14.455Z,96998.16
2023-03-28T21:52:42.717Z,96987.50
2023-03-28T21:55:11.389Z,96987.09
2023-03-28T21:57:39.141Z,96986.31
2023-03-28T22:00:14.984Z,96979.31
2023-03-28T22:02:43.441Z,96967.84
2023-03-28T22:05:26.175Z,96947.09
2023-03-28T22:07:56.596Z,96929.66
2023-03-28T22:10:26.553Z,96921.09
2023-03-28T22:12:54.745Z,96903.91
2023-03-28T22:15:22.532Z,96893.03
2023-03-28T22:17:50.631Z,96880.09
2023-03-28T22:20:22.565Z,96875.75
2023-03-28T22:22:50.258Z,96869.41
2023-03-28T22:25:19.119Z,96867.56
2023-03-28T22:27:47.027Z,96877.59
2023-03-28T22:30:15.575Z,96875.91
2023-03-28T22:32:43.376Z,96874.91
2023-03-28T22:35:12.197Z,96868.53
2023-03-28T22:37:41.512Z,96872.19
2023-03-28T22:40:11.361Z,96873.63
2023-03-28T22:42:39.146Z,96881.63
2023-03-28T22:45:08.047Z,96887.19
2023-03-28T22:47:39.393Z,96898.28
2023-03-28T22:50:09.197Z,96911.00
2023-03-28T22:52:38.013Z,96914.78
2023-03-28T22:55:09.057Z,96899.81
2023-03-28T22:57:37.000Z,96888.38
2023-03-28T23:00:08.362Z,96883.03
2023-03-28T23:02:36.565Z,96891.44
2023-03-28T23:05:05.754Z,96872.78
2023-03-28T23:07:35.003Z,96876.28
2023-03-28T23:10:03.625Z,96867.28
2023-03-28T23:12:32.743Z,96858.50
2023-03-28T23:15:00.599Z,96852.31
2023-03-28T23:17:28.480Z,96850.28
2023-03-28T23:19:56.331Z,96844.56
2023-03-28T23:22:24.199Z,96849.28
2023-03-28T23:24:52.237Z,96842.50
2023-03-28T23:27:20.786Z,96859.66
2023-03-28T23:29:49.928Z,96847.63
2023-03-28T23:32:17.704Z,96831.88
2023-03-28T23:34:45.499Z,96830.41
2023-03-28T23:37:14.093Z,96842.69
2023-03-28T23:39:41.981Z,96852.06
2023-03-28T23:42:09.769Z,96857.00
2023-03-28T23:44:37.820Z,96849.63
2023-03-28T23:47:07.061Z,96831.88
2023-03-28T23:49:34.921Z,96818.56
2023-03-28T23:52:02.767Z,96811.00
2023-03-28T23:54:30.939Z,96822.25
2023-03-28T23:56:58.915Z,96851.28
2023-03-28T23:59:26.755Z,96852.72
